Terminal Aerodrome Forecast
Issued by NWS

Home | Current Version | Previous Version | Graphics & Text | Print | Product List | Glossary On
Versions: 1 2 3 4 5 6 7 8 9 10 11 12 13 14 15 16 17 18 19 20 21 22 23 24 25 26 27 28 29 30 31 32 33 34 35 36 37 38 39 40 41 42 43 44 45 46 47 48 49 50
000
FTUS43 KLOT 210733 AAA
TAFGYY
TAF AMD
KGYY 210733Z 2108/2206 19013KT P6SM SCT060 OVC080
     FM211000 22010KT 6SM -SHRA SCT015 OVC035
      TEMPO 2110/2113 3SM SHRA BR BKN008 OVC015
     FM211500 24007KT P6SM SCT007 BKN012
     FM211900 28006KT P6SM SCT025
     FM212300 23004KT P6SM SKC=

USA.gov is the U.S. government's official web portal to all federal, state and local government web resources and services.